Darrouzett, Texas
Current Conditions -  °F | °C
As of 8:55 PM on Saturday 25 Oct 2014 (Local Time) from KPYX Reporting Station
Clear Clear  
Wind Chill: 68°   Ceiling: Unl
Heat Index: 68°   Visibility: 10mi
Dew Point: 47°   Wind: 12mph
Humidity: 47%   Direction: 170°S
Pressure: 30.01"   Gusts: NA
Location:  36.45°N, 100.32°W
Report Text: KPYX 260155Z AUTO 17010KT 10SM CLR 20/09 A3001 RMK AO2 T02020086
Loading
Personal Weather Stations






























Interactive Weather Map
Tropical Storm Tracking
New forecast layout! Learn more

10-Day Weather Forecast

Advertisements
Track Severe Weather on mobile